createdAt,value
2022-11-26T00:01:44.898Z,10.40
2022-11-26T00:04:13.711Z,10.40
2022-11-26T00:06:44.967Z,10.40
2022-11-26T00:09:25.098Z,10.40
2022-11-26T00:11:54.072Z,10.50
2022-11-26T00:14:22.862Z,10.30
2022-11-26T00:16:51.847Z,10.30
2022-11-26T00:19:20.901Z,10.30
2022-11-26T00:21:49.711Z,10.30
2022-11-26T00:24:28.290Z,10.30
2022-11-26T00:27:00.221Z,10.30
2022-11-26T00:29:29.346Z,10.30
2022-11-26T00:31:58.241Z,10.30
2022-11-26T00:34:27.164Z,10.30
2022-11-26T00:36:56.355Z,10.30
2022-11-26T00:39:26.661Z,10.30
2022-11-26T00:41:55.597Z,10.40
2022-11-26T00:44:25.646Z,10.40
2022-11-26T00:46:54.914Z,10.40
2022-11-26T00:49:24.362Z,10.40
2022-11-26T00:51:53.343Z,10.40
2022-11-26T00:54:23.603Z,10.50
2022-11-26T00:56:53.979Z,10.50
2022-11-26T00:59:41.420Z,10.50
2022-11-26T01:02:11.121Z,10.50
2022-11-26T01:04:40.266Z,10.50
2022-11-26T01:07:11.454Z,10.50
2022-11-26T01:09:40.685Z,10.60
2022-11-26T01:12:15.300Z,10.60
2022-11-26T01:14:44.199Z,10.60
2022-11-26T01:17:13.027Z,10.60
2022-11-26T01:19:41.638Z,10.60
2022-11-26T01:22:15.579Z,10.60
2022-11-26T01:25:03.051Z,10.60
2022-11-26T01:27:33.712Z,10.60
2022-11-26T01:30:02.354Z,10.60
2022-11-26T01:32:30.777Z,10.60
2022-11-26T01:34:59.399Z,10.50
2022-11-26T01:37:28.046Z,10.50
2022-11-26T01:39:56.464Z,10.50
2022-11-26T01:42:28.141Z,10.40
2022-11-26T01:44:58.099Z,10.40
2022-11-26T01:47:28.618Z,10.40
2022-11-26T01:50:14.905Z,10.30
2022-11-26T01:52:43.487Z,10.30
2022-11-26T01:55:16.188Z,10.30
2022-11-26T01:57:45.227Z,10.20
2022-11-26T02:00:16.407Z,10.20
2022-11-26T02:02:47.045Z,10.10
2022-11-26T02:05:19.966Z,10.10
2022-11-26T02:07:48.939Z,10.10
2022-11-26T02:10:25.739Z,10.00
2022-11-26T02:12:54.363Z,10.00
2022-11-26T02:15:24.887Z,9.90
2022-11-26T02:17:55.373Z,10.00
2022-11-26T02:20:32.978Z,9.90
2022-11-26T02:23:20.295Z,9.90
2022-11-26T02:26:03.999Z,9.90
2022-11-26T02:28:45.770Z,9.80
2022-11-26T02:31:18.590Z,9.80
2022-11-26T02:33:50.227Z,9.80
2022-11-26T02:36:23.306Z,9.80
2022-11-26T02:38:51.991Z,9.70
2022-11-26T02:41:20.447Z,9.70
2022-11-26T02:43:49.285Z,9.60
2022-11-26T02:46:20.909Z,9.60
2022-11-26T02:48:59.896Z,9.60
2022-11-26T02:51:34.566Z,9.60
2022-11-26T02:54:04.049Z,9.60
2022-11-26T02:56:33.059Z,9.60
2022-11-26T02:59:01.774Z,9.60
2022-11-26T03:01:33.797Z,9.60
2022-11-26T03:04:03.905Z,9.60
2022-11-26T03:06:33.906Z,9.60
2022-11-26T03:09:02.510Z,9.60
2022-11-26T03:11:31.161Z,9.60
2022-11-26T03:13:59.801Z,9.70
2022-11-26T03:16:28.374Z,9.60
2022-11-26T03:18:58.303Z,9.60
2022-11-26T03:21:26.859Z,9.70
2022-11-26T03:23:55.359Z,9.70
2022-11-26T03:26:23.926Z,9.70
2022-11-26T03:28:52.669Z,9.70
2022-11-26T03:31:21.197Z,9.80
2022-11-26T03:33:49.825Z,9.80
2022-11-26T03:36:19.991Z,9.90
2022-11-26T03:38:48.703Z,9.80
2022-11-26T03:41:17.155Z,9.90
2022-11-26T03:43:45.654Z,9.90
2022-11-26T03:46:14.173Z,9.90
2022-11-26T03:48:42.709Z,9.90
2022-11-26T03:51:11.400Z,9.90
2022-11-26T03:53:41.326Z,9.90
2022-11-26T03:56:09.759Z,9.90
2022-11-26T03:58:38.489Z,9.90
2022-11-26T04:01:08.925Z,9.90
2022-11-26T04:03:37.554Z,9.90
2022-11-26T04:06:24.533Z,9.90
2022-11-26T04:08:54.709Z,9.80
2022-11-26T04:11:42.044Z,10.00
2022-11-26T04:14:10.568Z,9.90
2022-11-26T04:16:39.311Z,10.00
2022-11-26T04:19:07.945Z,9.90
2022-11-26T04:21:36.413Z,9.90
2022-11-26T04:24:06.789Z,9.90
2022-11-26T04:26:35.432Z,9.90
2022-11-26T04:29:03.922Z,9.80
2022-11-26T04:31:32.802Z,9.80
2022-11-26T04:34:01.403Z,9.80
2022-11-26T04:36:34.418Z,9.80
2022-11-26T04:39:02.943Z,9.80
2022-11-26T04:41:32.939Z,9.80
2022-11-26T04:44:01.429Z,9.80
2022-11-26T04:46:30.033Z,9.80
2022-11-26T04:48:58.536Z,9.80
2022-11-26T04:51:27.114Z,9.80
2022-11-26T04:53:56.027Z,9.80
2022-11-26T04:56:24.777Z,9.80
2022-11-26T04:58:54.679Z,9.80
2022-11-26T05:01:23.308Z,9.80
2022-11-26T05:03:52.249Z,9.80
2022-11-26T05:06:20.980Z,9.80
2022-11-26T05:08:49.454Z,9.90
2022-11-26T05:11:17.917Z,9.80
2022-11-26T05:13:46.512Z,9.90
2022-11-26T05:16:16.408Z,9.90
2022-11-26T05:19:03.804Z,9.90
2022-11-26T05:21:32.316Z,9.90
2022-11-26T05:24:00.955Z,9.80
2022-11-26T05:26:29.482Z,9.80
2022-11-26T05:28:57.952Z,9.90
2022-11-26T05:31:28.751Z,9.90
2022-11-26T05:33:57.468Z,9.90
2022-11-26T05:36:25.934Z,9.90
2022-11-26T05:38:54.537Z,9.90
2022-11-26T05:41:23.013Z,9.90
2022-11-26T05:43:51.437Z,9.90
2022-11-26T05:46:20.202Z,9.90
2022-11-26T05:48:50.153Z,9.90
2022-11-26T05:51:18.741Z,9.90
2022-11-26T05:53:47.193Z,9.90
2022-11-26T05:56:15.723Z,9.90
2022-11-26T05:58:44.508Z,9.90
2022-11-26T06:01:13.031Z,9.90
2022-11-26T06:03:42.181Z,10.00
2022-11-26T06:06:12.283Z,10.00
2022-11-26T06:08:40.876Z,10.00
2022-11-26T06:11:09.335Z,10.00
2022-11-26T06:13:38.046Z,10.00
2022-11-26T06:16:06.804Z,10.00
2022-11-26T06:18:35.391Z,10.10
2022-11-26T06:21:04.091Z,10.10
2022-11-26T06:23:34.491Z,10.20
2022-11-26T06:26:03.110Z,10.10
2022-11-26T06:28:31.552Z,10.20
2022-11-26T06:31:00.194Z,10.20
2022-11-26T06:33:29.038Z,10.30
2022-11-26T06:36:00.110Z,10.30
2022-11-26T06:38:28.725Z,10.30
2022-11-26T06:41:02.529Z,10.30
2022-11-26T06:43:31.204Z,10.30
2022-11-26T06:46:03.771Z,10.40
2022-11-26T06:48:33.023Z,10.30
2022-11-26T06:51:04.312Z,10.40
2022-11-26T06:53:32.992Z,10.40
2022-11-26T06:56:03.244Z,10.40
2022-11-26T06:58:31.659Z,10.40
2022-11-26T07:01:00.389Z,10.40
2022-11-26T07:03:33.254Z,10.50
2022-11-26T07:06:02.123Z,10.50
2022-11-26T07:08:30.911Z,10.50
2022-11-26T07:11:04.174Z,10.60
2022-11-26T07:13:32.714Z,10.60
2022-11-26T07:16:03.140Z,10.60
2022-11-26T07:18:31.943Z,10.70
2022-11-26T07:21:06.040Z,10.70
2022-11-26T07:23:34.874Z,10.70
2022-11-26T07:26:05.993Z,10.50
2022-11-26T07:28:35.037Z,10.70
2022-11-26T07:31:04.524Z,10.70
2022-11-26T07:33:33.145Z,10.70
2022-11-26T07:36:02.182Z,10.80
2022-11-26T07:38:49.712Z,10.80
2022-11-26T07:41:20.264Z,10.80
2022-11-26T07:43:49.056Z,10.80
2022-11-26T07:46:19.960Z,10.80
2022-11-26T07:48:48.842Z,10.80
2022-11-26T07:51:19.240Z,10.90
2022-11-26T07:53:47.914Z,10.90
2022-11-26T07:56:16.740Z,10.90
2022-11-26T07:58:46.714Z,10.90
2022-11-26T08:01:16.822Z,10.90
2022-11-26T08:03:46.951Z,10.90
2022-11-26T08:06:16.824Z,11.00
2022-11-26T08:08:45.366Z,11.00
2022-11-26T08:11:15.146Z,11.00
2022-11-26T08:13:43.928Z,11.10
2022-11-26T08:16:14.433Z,11.10
2022-11-26T08:18:43.194Z,11.10
2022-11-26T08:21:12.043Z,11.20
2022-11-26T08:23:40.515Z,11.30
2022-11-26T08:26:33.647Z,11.30
2022-11-26T08:28:58.707Z,11.40
2022-11-26T08:31:28.996Z,11.40
2022-11-26T08:33:58.351Z,11.40
2022-11-26T08:36:26.902Z,11.40
2022-11-26T08:38:55.389Z,11.40
2022-11-26T08:41:24.146Z,11.40
2022-11-26T08:44:08.695Z,11.40
2022-11-26T08:46:39.660Z,11.50
2022-11-26T08:49:09.277Z,11.50
2022-11-26T08:51:37.908Z,11.50
2022-11-26T08:54:06.486Z,11.50
2022-11-26T08:56:35.559Z,11.50
2022-11-26T08:59:04.100Z,11.50
2022-11-26T09:01:34.031Z,11.40
2022-11-26T09:04:05.176Z,11.40
2022-11-26T09:06:34.556Z,11.40
2022-11-26T09:09:15.548Z,11.40
2022-11-26T09:11:46.682Z,11.40
2022-11-26T09:14:16.709Z,11.40
2022-11-26T09:16:45.863Z,11.30
2022-11-26T09:19:16.257Z,11.40
2022-11-26T09:21:45.033Z,11.30
2022-11-26T09:24:13.843Z,11.40
2022-11-26T09:26:42.345Z,11.40
2022-11-26T09:29:13.507Z,11.40
2022-11-26T09:32:00.808Z,11.40
2022-11-26T09:34:32.635Z,11.40
2022-11-26T09:37:19.617Z,11.40
2022-11-26T09:39:48.151Z,11.40
2022-11-26T09:42:43.993Z,11.40
2022-11-26T09:45:18.274Z,11.50
2022-11-26T09:47:48.196Z,11.50
2022-11-26T09:50:22.189Z,11.60
2022-11-26T09:52:54.270Z,11.60
2022-11-26T09:55:24.065Z,11.60
2022-11-26T09:57:56.046Z,11.60
2022-11-26T10:00:26.393Z,11.60
2022-11-26T10:02:55.826Z,11.60
2022-11-26T10:05:30.020Z,11.70
2022-11-26T10:08:09.204Z,11.60
2022-11-26T10:10:43.771Z,11.80
2022-11-26T10:13:19.823Z,11.80
2022-11-26T10:15:55.739Z,11.90
2022-11-26T10:18:27.314Z,11.90
2022-11-26T10:20:59.736Z,12.00
2022-11-26T10:23:33.644Z,12.20
2022-11-26T10:26:06.349Z,12.10
2022-11-26T10:28:37.276Z,12.20
2022-11-26T10:31:11.685Z,12.20
2022-11-26T10:33:46.319Z,12.30
2022-11-26T10:36:22.122Z,12.40
2022-11-26T10:38:50.715Z,12.50
2022-11-26T10:41:20.831Z,12.60
2022-11-26T10:43:49.421Z,12.60
2022-11-26T10:46:31.541Z,12.70
2022-11-26T10:49:14.897Z,12.80
2022-11-26T10:51:47.735Z,12.80
2022-11-26T10:54:25.115Z,12.90
2022-11-26T10:56:54.060Z,12.90
2022-11-26T10:59:25.991Z,12.90
2022-11-26T11:01:57.588Z,12.90
2022-11-26T11:04:29.145Z,12.90
2022-11-26T11:06:59.253Z,12.90
2022-11-26T11:09:30.555Z,12.80
2022-11-26T11:12:19.392Z,12.80
2022-11-26T11:14:48.529Z,12.80
2022-11-26T11:17:33.633Z,12.80
2022-11-26T11:20:05.158Z,12.80
2022-11-26T11:22:35.115Z,12.70
2022-11-26T11:25:03.683Z,12.70
2022-11-26T11:27:37.718Z,12.70
2022-11-26T11:30:06.773Z,12.70
2022-11-26T11:32:37.073Z,12.70
2022-11-26T11:35:31.208Z,12.60
2022-11-26T11:38:02.656Z,12.60
2022-11-26T11:40:33.748Z,12.60
2022-11-26T11:43:04.378Z,12.60
2022-11-26T11:45:35.021Z,12.60
2022-11-26T11:48:27.747Z,12.60
2022-11-26T11:51:00.001Z,12.50
2022-11-26T11:53:36.865Z,12.50
2022-11-26T11:56:15.528Z,12.50
2022-11-26T11:59:04.806Z,12.50
2022-11-26T12:01:39.984Z,12.50
2022-11-26T12:04:19.946Z,12.50
2022-11-26T12:06:56.210Z,12.60
2022-11-26T12:09:30.226Z,12.50
2022-11-26T12:12:00.627Z,12.50
2022-11-26T12:14:31.623Z,12.50
2022-11-26T12:17:04.577Z,12.50
2022-11-26T12:19:38.245Z,12.50
2022-11-26T12:22:12.165Z,12.50
2022-11-26T12:24:46.059Z,12.50
2022-11-26T12:27:21.150Z,12.50
2022-11-26T12:29:53.899Z,12.50
2022-11-26T12:32:24.592Z,12.60
2022-11-26T12:34:54.506Z,12.60
2022-11-26T12:37:25.659Z,12.60
2022-11-26T12:39:58.278Z,12.60
2022-11-26T12:42:29.641Z,12.60
2022-11-26T12:45:02.470Z,12.60
2022-11-26T12:47:33.252Z,12.60
2022-11-26T12:50:06.166Z,12.70
2022-11-26T12:52:38.953Z,12.70
2022-11-26T12:55:14.439Z,12.70
2022-11-26T12:57:44.420Z,12.70
2022-11-26T13:00:15.410Z,12.60
2022-11-26T13:02:44.959Z,12.60
2022-11-26T13:05:16.911Z,12.70
2022-11-26T13:08:01.036Z,12.60
2022-11-26T13:10:35.157Z,12.60
2022-11-26T13:13:08.914Z,12.60
2022-11-26T13:16:03.883Z,12.60
2022-11-26T13:18:34.508Z,12.70
2022-11-26T13:21:11.731Z,12.70
2022-11-26T13:23:47.644Z,12.70
2022-11-26T13:26:25.692Z,12.70
2022-11-26T13:29:01.137Z,12.80
2022-11-26T13:31:38.060Z,12.80
2022-11-26T13:34:12.654Z,12.80
2022-11-26T13:36:52.153Z,12.70
2022-11-26T13:39:32.615Z,12.80
2022-11-26T13:42:17.349Z,12.70
2022-11-26T13:44:56.698Z,12.70
2022-11-26T13:47:28.049Z,12.70
2022-11-26T13:50:16.754Z,12.70
2022-11-26T13:52:48.442Z,12.70
2022-11-26T13:55:18.567Z,12.60
2022-11-26T13:57:51.590Z,12.60
2022-11-26T14:00:26.955Z,12.60
2022-11-26T14:02:55.853Z,12.60
2022-11-26T14:05:24.659Z,12.50
2022-11-26T14:08:13.207Z,12.50
2022-11-26T14:10:44.692Z,12.50
2022-11-26T14:13:17.118Z,12.50
2022-11-26T14:15:54.249Z,12.40
2022-11-26T14:18:37.854Z,12.40
2022-11-26T14:21:12.812Z,12.40
2022-11-26T14:23:45.138Z,12.30
2022-11-26T14:26:16.610Z,12.30
2022-11-26T14:28:48.805Z,12.30
2022-11-26T14:31:22.199Z,12.20
2022-11-26T14:33:51.507Z,12.20
2022-11-26T14:36:21.037Z,12.20
2022-11-26T14:39:04.318Z,12.20
2022-11-26T14:41:35.105Z,12.10
2022-11-26T14:44:08.930Z,12.10
2022-11-26T14:46:37.581Z,12.00
2022-11-26T14:49:16.629Z,12.00
2022-11-26T14:51:46.792Z,12.00
2022-11-26T14:54:17.523Z,11.90
2022-11-26T14:56:47.585Z,11.70
2022-11-26T14:59:18.946Z,11.80
2022-11-26T15:01:48.173Z,11.70
2022-11-26T15:04:26.643Z,11.60
2022-11-26T15:06:55.977Z,11.60
2022-11-26T15:09:26.620Z,11.60
2022-11-26T15:12:06.239Z,11.50
2022-11-26T15:14:42.561Z,11.50
2022-11-26T15:17:16.152Z,11.40
2022-11-26T15:19:45.817Z,11.40
2022-11-26T15:22:22.542Z,11.40
2022-11-26T15:24:52.597Z,11.40
2022-11-26T15:27:36.400Z,11.40
2022-11-26T15:30:19.405Z,11.30
2022-11-26T15:33:14.523Z,11.30
2022-11-26T15:35:44.153Z,11.30
2022-11-26T15:38:15.863Z,11.20
2022-11-26T15:40:48.520Z,11.20
2022-11-26T15:43:23.016Z,11.20
2022-11-26T15:45:54.912Z,11.10
2022-11-26T15:48:44.122Z,11.10
2022-11-26T15:51:24.112Z,11.00
2022-11-26T15:53:53.529Z,11.00
2022-11-26T15:56:26.250Z,10.90
2022-11-26T15:58:58.330Z,10.90
2022-11-26T16:01:32.947Z,10.80
2022-11-26T16:04:06.182Z,10.80
2022-11-26T16:06:37.147Z,10.70
2022-11-26T16:09:27.699Z,10.70
2022-11-26T16:12:01.568Z,10.70
2022-11-26T16:14:33.074Z,10.60
2022-11-26T16:17:08.505Z,10.60
2022-11-26T16:19:38.903Z,10.60
2022-11-26T16:22:18.396Z,10.50
2022-11-26T16:24:47.338Z,10.50
2022-11-26T16:27:28.514Z,10.50
2022-11-26T16:29:57.673Z,10.50
2022-11-26T16:32:28.117Z,10.50
2022-11-26T16:34:57.086Z,10.50
2022-11-26T16:37:28.073Z,10.50
2022-11-26T16:40:04.319Z,10.40
2022-11-26T16:42:34.777Z,10.40
2022-11-26T16:45:04.489Z,10.40
2022-11-26T16:47:39.636Z,10.50
2022-11-26T16:50:18.527Z,10.50
2022-11-26T16:52:54.352Z,10.50
2022-11-26T16:55:26.080Z,10.50
2022-11-26T16:57:58.171Z,10.60
2022-11-26T17:00:27.919Z,10.60
2022-11-26T17:02:58.378Z,10.70
2022-11-26T17:05:27.370Z,10.70
2022-11-26T17:07:59.280Z,10.70
2022-11-26T17:10:30.587Z,10.70
2022-11-26T17:13:00.019Z,10.70
2022-11-26T17:15:47.523Z,10.70
2022-11-26T17:18:20.569Z,10.70
2022-11-26T17:20:49.874Z,10.70
2022-11-26T17:23:19.015Z,10.70
2022-11-26T17:25:51.673Z,10.70
2022-11-26T17:28:21.354Z,10.70
2022-11-26T17:30:50.545Z,10.70
2022-11-26T17:33:31.589Z,10.70
2022-11-26T17:36:27.407Z,10.70
2022-11-26T17:38:57.732Z,10.70
2022-11-26T17:41:26.498Z,10.70
2022-11-26T17:43:55.588Z,10.70
2022-11-26T17:46:24.678Z,10.70
2022-11-26T17:48:59.642Z,10.70
2022-11-26T17:51:29.794Z,10.70
2022-11-26T17:53:59.196Z,10.70
2022-11-26T17:56:28.276Z,10.70
2022-11-26T17:58:57.638Z,10.70
2022-11-26T18:01:26.632Z,10.70
2022-11-26T18:03:56.993Z,10.70
2022-11-26T18:06:36.508Z,10.70
2022-11-26T18:09:05.652Z,10.70
2022-11-26T18:11:47.018Z,10.70
2022-11-26T18:14:15.930Z,10.70
2022-11-26T18:16:45.371Z,10.70
2022-11-26T18:19:18.945Z,10.70
2022-11-26T18:21:49.686Z,10.60
2022-11-26T18:24:18.711Z,10.60
2022-11-26T18:26:47.916Z,10.60
2022-11-26T18:29:16.734Z,10.50
2022-11-26T18:31:45.915Z,10.50
2022-11-26T18:34:16.365Z,10.50
2022-11-26T18:36:50.702Z,10.50
2022-11-26T18:39:37.421Z,10.40
2022-11-26T18:42:36.049Z,10.40
2022-11-26T18:45:17.097Z,10.40
2022-11-26T18:47:51.072Z,10.40
2022-11-26T18:50:22.394Z,10.30
2022-11-26T18:52:51.349Z,10.30
2022-11-26T18:55:20.595Z,10.30
2022-11-26T18:57:49.420Z,10.30
2022-11-26T19:00:19.117Z,10.20
2022-11-26T19:02:48.087Z,10.20
2022-11-26T19:05:17.140Z,10.20
2022-11-26T19:07:47.741Z,10.20
2022-11-26T19:10:35.369Z,10.20
2022-11-26T19:13:04.338Z,10.10
2022-11-26T19:15:33.821Z,10.10
2022-11-26T19:18:02.745Z,10.10
2022-11-26T19:20:31.639Z,10.10
2022-11-26T19:23:01.904Z,10.10
2022-11-26T19:25:31.796Z,10.10
2022-11-26T19:28:04.751Z,10.10
2022-11-26T19:30:40.294Z,10.10
2022-11-26T19:33:09.693Z,10.10
2022-11-26T19:35:41.352Z,10.10
2022-11-26T19:38:11.687Z,10.00
2022-11-26T19:40:41.429Z,10.00
2022-11-26T19:43:10.322Z,10.00
2022-11-26T19:45:39.384Z,10.00
2022-11-26T19:48:08.392Z,10.00
2022-11-26T19:50:37.280Z,10.00
2022-11-26T19:53:06.180Z,9.90
2022-11-26T19:55:36.529Z,9.90
2022-11-26T19:58:05.371Z,9.80
2022-11-26T20:00:34.565Z,9.80
2022-11-26T20:03:03.550Z,9.70
2022-11-26T20:05:32.451Z,9.60
2022-11-26T20:08:01.512Z,9.50
2022-11-26T20:10:30.462Z,9.50
2022-11-26T20:13:00.729Z,9.50
2022-11-26T20:15:29.546Z,9.50
2022-11-26T20:17:58.672Z,9.50
2022-11-26T20:20:27.670Z,9.50
2022-11-26T20:22:56.750Z,9.40
2022-11-26T20:25:25.797Z,9.40
2022-11-26T20:27:54.702Z,9.40
2022-11-26T20:30:25.572Z,9.30
2022-11-26T20:32:54.905Z,9.20
2022-11-26T20:35:24.489Z,9.20
2022-11-26T20:37:54.111Z,9.20
2022-11-26T20:40:23.344Z,9.10
2022-11-26T20:42:52.358Z,9.10
2022-11-26T20:45:22.776Z,9.10
2022-11-26T20:47:53.292Z,9.00
2022-11-26T20:50:22.192Z,9.00
2022-11-26T20:52:51.217Z,8.90
2022-11-26T20:55:22.248Z,8.90
2022-11-26T20:57:51.293Z,8.90
2022-11-26T21:00:26.165Z,8.80
2022-11-26T21:02:57.932Z,8.80
2022-11-26T21:05:27.025Z,8.80
2022-11-26T21:07:56.067Z,8.70
2022-11-26T21:10:26.592Z,8.70
2022-11-26T21:12:55.692Z,8.70
2022-11-26T21:15:24.480Z,8.70
2022-11-26T21:17:53.769Z,8.70
2022-11-26T21:20:24.057Z,8.70
2022-11-26T21:22:52.802Z,8.70
2022-11-26T21:25:21.856Z,8.70
2022-11-26T21:27:55.588Z,8.70
2022-11-26T21:30:24.872Z,8.70
2022-11-26T21:32:53.690Z,8.60
2022-11-26T21:35:24.000Z,8.60
2022-11-26T21:37:53.070Z,8.60
2022-11-26T21:40:21.883Z,8.50
2022-11-26T21:42:50.736Z,8.50
2022-11-26T21:45:19.933Z,8.40
2022-11-26T21:47:51.245Z,8.40
2022-11-26T21:50:20.885Z,8.30
2022-11-26T21:52:51.229Z,8.30
2022-11-26T21:55:20.140Z,8.20
2022-11-26T21:57:49.028Z,8.20
2022-11-26T22:00:19.213Z,8.10
2022-11-26T22:02:48.272Z,8.10
2022-11-26T22:05:17.242Z,8.00
2022-11-26T22:07:46.209Z,8.00
2022-11-26T22:10:17.009Z,8.00
2022-11-26T22:12:47.433Z,8.00
2022-11-26T22:15:16.373Z,8.00
2022-11-26T22:17:45.224Z,8.00
2022-11-26T22:20:15.388Z,8.00
2022-11-26T22:22:44.371Z,8.10
2022-11-26T22:25:13.261Z,8.10
2022-11-26T22:27:43.597Z,8.10
2022-11-26T22:30:13.356Z,8.10
2022-11-26T22:32:42.165Z,8.10
2022-11-26T22:35:11.283Z,8.10
2022-11-26T22:37:40.023Z,8.10
2022-11-26T22:40:10.328Z,8.10
2022-11-26T22:42:41.200Z,8.20
2022-11-26T22:45:13.239Z,8.20
2022-11-26T22:47:42.223Z,8.20
2022-11-26T22:50:11.486Z,8.30
2022-11-26T22:52:40.511Z,8.30
2022-11-26T22:55:10.335Z,8.40
2022-11-26T22:57:39.269Z,8.40
2022-11-26T23:00:13.747Z,8.50
2022-11-26T23:02:42.732Z,8.60
2022-11-26T23:05:12.089Z,8.60
2022-11-26T23:07:41.509Z,8.70
2022-11-26T23:10:11.013Z,8.70
2022-11-26T23:12:40.366Z,8.70
2022-11-26T23:15:12.413Z,8.80
2022-11-26T23:17:41.245Z,8.80
2022-11-26T23:20:10.657Z,8.90
2022-11-26T23:22:39.688Z,9.00
2022-11-26T23:25:10.236Z,9.10
2022-11-26T23:27:39.258Z,9.20
2022-11-26T23:30:09.457Z,9.40
2022-11-26T23:32:39.719Z,9.50
2022-11-26T23:35:09.141Z,9.60
2022-11-26T23:37:39.200Z,9.60
2022-11-26T23:40:09.790Z,9.70
2022-11-26T23:42:38.773Z,9.80
2022-11-26T23:45:08.585Z,9.80
2022-11-26T23:47:40.035Z,9.80
2022-11-26T23:50:10.066Z,9.80
2022-11-26T23:52:39.071Z,9.90
2022-11-26T23:55:09.037Z,9.90
2022-11-26T23:57:38.785Z,9.90
